sensor_id;sensor_type;location;lat;lon;timestamp;temperature;humidity
10300;DHT22;5195;48.562;9.192;2024-03-23T00:56:07;14.00;42.60
10300;DHT22;5195;48.562;9.192;2024-03-23T00:58:45;13.80;42.90
10300;DHT22;5195;48.562;9.192;2024-03-23T01:01:20;13.80;42.30
10300;DHT22;5195;48.562;9.192;2024-03-23T01:03:56;13.40;42.80
10300;DHT22;5195;48.562;9.192;2024-03-23T01:06:32;13.40;43.30
10300;DHT22;5195;48.562;9.192;2024-03-23T01:09:09;13.30;44.30
10300;DHT22;5195;48.562;9.192;2024-03-23T01:11:46;13.30;44.30
10300;DHT22;5195;48.562;9.192;2024-03-23T01:14:22;13.20;44.10
10300;DHT22;5195;48.562;9.192;2024-03-23T01:16:57;13.30;44.40
10300;DHT22;5195;48.562;9.192;2024-03-23T01:19:36;13.60;43.90
10300;DHT22;5195;48.562;9.192;2024-03-23T01:22:12;13.10;44.30
10300;DHT22;5195;48.562;9.192;2024-03-23T01:24:48;13.10;44.30
10300;DHT22;5195;48.562;9.192;2024-03-23T01:27:23;13.30;44.60
10300;DHT22;5195;48.562;9.192;2024-03-23T01:29:59;13.20;44.40
10300;DHT22;5195;48.562;9.192;2024-03-23T01:32:35;13.30;44.40
10300;DHT22;5195;48.562;9.192;2024-03-23T01:35:11;13.00;44.90
10300;DHT22;5195;48.562;9.192;2024-03-23T01:37:47;13.00;45.00
10300;DHT22;5195;48.562;9.192;2024-03-23T01:40:22;12.80;45.10
10300;DHT22;5195;48.562;9.192;2024-03-23T01:42:58;12.60;45.30
10300;DHT22;5195;48.562;9.192;2024-03-23T01:45:34;12.50;45.70
10300;DHT22;5195;48.562;9.192;2024-03-23T01:48:09;12.40;46.00
10300;DHT22;5195;48.562;9.192;2024-03-23T01:50:46;12.30;46.20
10300;DHT22;5195;48.562;9.192;2024-03-23T01:53:21;12.20;46.50
10300;DHT22;5195;48.562;9.192;2024-03-23T01:55:57;12.20;46.80
10300;DHT22;5195;48.562;9.192;2024-03-23T01:58:33;12.50;46.90
10300;DHT22;5195;48.562;9.192;2024-03-23T02:01:08;12.70;47.00
10300;DHT22;5195;48.562;9.192;2024-03-23T02:03:44;12.60;47.40
10300;DHT22;5195;48.562;9.192;2024-03-23T02:06:19;12.50;47.50
10300;DHT22;5195;48.562;9.192;2024-03-23T02:08:56;12.50;47.70
10300;DHT22;5195;48.562;9.192;2024-03-23T02:11:32;12.50;48.10
10300;DHT22;5195;48.562;9.192;2024-03-23T02:14:07;12.90;47.80
10300;DHT22;5195;48.562;9.192;2024-03-23T02:16:43;13.00;47.50
10300;DHT22;5195;48.562;9.192;2024-03-23T02:19:18;13.10;47.80
10300;DHT22;5195;48.562;9.192;2024-03-23T02:21:54;13.40;47.10
10300;DHT22;5195;48.562;9.192;2024-03-23T02:24:30;13.90;46.20
10300;DHT22;5195;48.562;9.192;2024-03-23T02:27:05;14.30;45.50
10300;DHT22;5195;48.562;9.192;2024-03-23T02:29:41;14.50;44.80
10300;DHT22;5195;48.562;9.192;2024-03-23T02:32:16;14.70;44.40
10300;DHT22;5195;48.562;9.192;2024-03-23T02:34:52;14.90;44.10
10300;DHT22;5195;48.562;9.192;2024-03-23T02:37:28;14.70;44.40
10300;DHT22;5195;48.562;9.192;2024-03-23T02:40:04;14.70;44.50
10300;DHT22;5195;48.562;9.192;2024-03-23T02:42:40;14.90;44.20
10300;DHT22;5195;48.562;9.192;2024-03-23T02:45:16;15.20;43.90
10300;DHT22;5195;48.562;9.192;2024-03-23T02:47:53;15.20;43.90
10300;DHT22;5195;48.562;9.192;2024-03-23T02:50:29;14.90;44.10
10300;DHT22;5195;48.562;9.192;2024-03-23T02:53:05;14.20;45.00
10300;DHT22;5195;48.562;9.192;2024-03-23T02:55:41;14.20;44.90
10300;DHT22;5195;48.562;9.192;2024-03-23T02:58:16;14.00;45.40
10300;DHT22;5195;48.562;9.192;2024-03-23T03:00:52;13.90;45.80
10300;DHT22;5195;48.562;9.192;2024-03-23T03:03:28;14.10;45.90
10300;DHT22;5195;48.562;9.192;2024-03-23T03:06:03;14.20;45.80
10300;DHT22;5195;48.562;9.192;2024-03-23T03:08:39;14.40;45.70
10300;DHT22;5195;48.562;9.192;2024-03-23T03:11:15;14.70;45.20
10300;DHT22;5195;48.562;9.192;2024-03-23T03:13:50;15.00;44.80
10300;DHT22;5195;48.562;9.192;2024-03-23T03:16:26;14.90;44.90
10300;DHT22;5195;48.562;9.192;2024-03-23T03:19:03;14.60;45.30
10300;DHT22;5195;48.562;9.192;2024-03-23T03:21:38;14.30;45.60
10300;DHT22;5195;48.562;9.192;2024-03-23T03:24:14;14.10;46.00
10300;DHT22;5195;48.562;9.192;2024-03-23T03:26:49;14.00;46.40
10300;DHT22;5195;48.562;9.192;2024-03-23T03:29:26;14.20;46.40
10300;DHT22;5195;48.562;9.192;2024-03-23T03:32:03;14.20;46.40
10300;DHT22;5195;48.562;9.192;2024-03-23T03:34:39;14.40;46.10
10300;DHT22;5195;48.562;9.192;2024-03-23T03:37:14;14.40;46.10
10300;DHT22;5195;48.562;9.192;2024-03-23T03:39:50;14.20;46.40
10300;DHT22;5195;48.562;9.192;2024-03-23T03:42:26;14.00;46.60
10300;DHT22;5195;48.562;9.192;2024-03-23T03:45:01;14.20;46.50
10300;DHT22;5195;48.562;9.192;2024-03-23T03:47:37;14.10;46.20
10300;DHT22;5195;48.562;9.192;2024-03-23T03:50:14;14.30;46.00
10300;DHT22;5195;48.562;9.192;2024-03-23T03:52:49;14.50;45.40
10300;DHT22;5195;48.562;9.192;2024-03-23T03:55:26;14.30;45.40
10300;DHT22;5195;48.562;9.192;2024-03-23T03:58:03;13.70;46.30
10300;DHT22;5195;48.562;9.192;2024-03-23T04:00:38;13.60;46.20
10300;DHT22;5195;48.562;9.192;2024-03-23T04:03:14;13.40;46.50
10300;DHT22;5195;48.562;9.192;2024-03-23T04:05:53;13.20;46.80
10300;DHT22;5195;48.562;9.192;2024-03-23T04:08:26;12.80;47.30
10300;DHT22;5195;48.562;9.192;2024-03-23T04:11:02;12.80;47.30
10300;DHT22;5195;48.562;9.192;2024-03-23T04:13:37;12.70;47.60
10300;DHT22;5195;48.562;9.192;2024-03-23T04:16:13;13.00;48.20
10300;DHT22;5195;48.562;9.192;2024-03-23T04:18:48;13.50;47.80
10300;DHT22;5195;48.562;9.192;2024-03-23T04:21:25;13.80;47.30
10300;DHT22;5195;48.562;9.192;2024-03-23T04:24:01;13.70;47.10
10300;DHT22;5195;48.562;9.192;2024-03-23T04:26:43;13.80;47.50
10300;DHT22;5195;48.562;9.192;2024-03-23T04:29:15;14.00;47.50
10300;DHT22;5195;48.562;9.192;2024-03-23T04:31:51;13.90;47.40
10300;DHT22;5195;48.562;9.192;2024-03-23T04:34:27;13.90;47.70
10300;DHT22;5195;48.562;9.192;2024-03-23T04:37:04;13.80;47.60
10300;DHT22;5195;48.562;9.192;2024-03-23T04:39:39;13.90;47.90
10300;DHT22;5195;48.562;9.192;2024-03-23T04:42:15;14.10;47.60
10300;DHT22;5195;48.562;9.192;2024-03-23T04:44:53;14.10;47.40
10300;DHT22;5195;48.562;9.192;2024-03-23T04:47:29;13.80;48.20
10300;DHT22;5195;48.562;9.192;2024-03-23T04:50:05;13.80;47.90
10300;DHT22;5195;48.562;9.192;2024-03-23T04:52:43;13.90;48.40
10300;DHT22;5195;48.562;9.192;2024-03-23T04:55:20;13.70;48.60
10300;DHT22;5195;48.562;9.192;2024-03-23T04:57:55;13.70;48.60
10300;DHT22;5195;48.562;9.192;2024-03-23T05:00:31;13.60;48.90
10300;DHT22;5195;48.562;9.192;2024-03-23T05:03:06;13.80;48.90
10300;DHT22;5195;48.562;9.192;2024-03-23T05:05:42;13.90;48.70
10300;DHT22;5195;48.562;9.192;2024-03-23T05:08:20;13.80;48.90
10300;DHT22;5195;48.562;9.192;2024-03-23T05:10:57;13.80;48.90
10300;DHT22;5195;48.562;9.192;2024-03-23T05:13:32;13.80;49.00
10300;DHT22;5195;48.562;9.192;2024-03-23T05:16:08;13.80;48.90
10300;DHT22;5195;48.562;9.192;2024-03-23T05:18:43;14.10;48.20
10300;DHT22;5195;48.562;9.192;2024-03-23T05:21:19;14.20;47.80
10300;DHT22;5195;48.562;9.192;2024-03-23T05:23:55;14.20;48.00
10300;DHT22;5195;48.562;9.192;2024-03-23T05:26:30;14.30;50.20
10300;DHT22;5195;48.562;9.192;2024-03-23T05:29:10;14.60;51.20
10300;DHT22;5195;48.562;9.192;2024-03-23T05:31:49;14.60;51.20
10300;DHT22;5195;48.562;9.192;2024-03-23T05:34:23;14.30;50.90
10300;DHT22;5195;48.562;9.192;2024-03-23T05:36:59;13.80;51.30
10300;DHT22;5195;48.562;9.192;2024-03-23T05:39:34;13.40;52.00
10300;DHT22;5195;48.562;9.192;2024-03-23T05:42:10;13.50;54.00
10300;DHT22;5195;48.562;9.192;2024-03-23T05:44:46;13.70;54.20
10300;DHT22;5195;48.562;9.192;2024-03-23T05:47:22;13.50;53.60
10300;DHT22;5195;48.562;9.192;2024-03-23T05:49:58;13.50;54.80
10300;DHT22;5195;48.562;9.192;2024-03-23T05:52:33;13.70;54.90
10300;DHT22;5195;48.562;9.192;2024-03-23T05:55:09;13.70;54.60
10300;DHT22;5195;48.562;9.192;2024-03-23T05:57:45;13.70;55.00
10300;DHT22;5195;48.562;9.192;2024-03-23T06:00:21;13.40;55.00
10300;DHT22;5195;48.562;9.192;2024-03-23T06:02:56;13.40;55.00
10300;DHT22;5195;48.562;9.192;2024-03-23T06:05:32;13.30;55.80
10300;DHT22;5195;48.562;9.192;2024-03-23T06:08:08;13.40;55.90
10300;DHT22;5195;48.562;9.192;2024-03-23T06:10:43;13.50;55.70
10300;DHT22;5195;48.562;9.192;2024-03-23T06:13:20;13.30;55.70
10300;DHT22;5195;48.562;9.192;2024-03-23T06:15:57;13.20;56.30
10300;DHT22;5195;48.562;9.192;2024-03-23T06:18:33;13.00;56.20
10300;DHT22;5195;48.562;9.192;2024-03-23T06:21:13;13.10;57.00
10300;DHT22;5195;48.562;9.192;2024-03-23T06:23:46;13.30;56.40
10300;DHT22;5195;48.562;9.192;2024-03-23T06:26:28;13.50;56.00
10300;DHT22;5195;48.562;9.192;2024-03-23T06:29:04;13.30;56.10
10300;DHT22;5195;48.562;9.192;2024-03-23T06:31:41;13.10;56.60
10300;DHT22;5195;48.562;9.192;2024-03-23T06:34:16;13.00;56.70
10300;DHT22;5195;48.562;9.192;2024-03-23T06:36:52;13.10;55.30
10300;DHT22;5195;48.562;9.192;2024-03-23T06:39:28;13.50;54.00
10300;DHT22;5195;48.562;9.192;2024-03-23T06:42:03;13.40;54.00
10300;DHT22;5195;48.562;9.192;2024-03-23T06:44:40;13.20;54.40
10300;DHT22;5195;48.562;9.192;2024-03-23T06:47:16;13.00;54.80
10300;DHT22;5195;48.562;9.192;2024-03-23T06:49:52;12.80;55.30
10300;DHT22;5195;48.562;9.192;2024-03-23T06:52:28;12.80;55.30
10300;DHT22;5195;48.562;9.192;2024-03-23T06:55:04;12.80;55.40
10300;DHT22;5195;48.562;9.192;2024-03-23T06:57:39;12.80;55.40
10300;DHT22;5195;48.562;9.192;2024-03-23T07:00:15;13.00;54.30
10300;DHT22;5195;48.562;9.192;2024-03-23T07:02:51;13.40;53.10
10300;DHT22;5195;48.562;9.192;2024-03-23T07:05:26;13.80;51.90
10300;DHT22;5195;48.562;9.192;2024-03-23T07:08:03;13.70;51.90
10300;DHT22;5195;48.562;9.192;2024-03-23T07:10:39;13.80;51.20
10300;DHT22;5195;48.562;9.192;2024-03-23T07:13:14;14.00;49.80
10300;DHT22;5195;48.562;9.192;2024-03-23T07:15:53;13.80;50.10
10300;DHT22;5195;48.562;9.192;2024-03-23T07:18:29;13.50;51.30
10300;DHT22;5195;48.562;9.192;2024-03-23T07:21:05;13.30;51.90
10300;DHT22;5195;48.562;9.192;2024-03-23T07:23:44;13.10;51.90
10300;DHT22;5195;48.562;9.192;2024-03-23T07:26:20;12.90;52.30
10300;DHT22;5195;48.562;9.192;2024-03-23T07:28:55;13.20;51.60
10300;DHT22;5195;48.562;9.192;2024-03-23T07:31:31;13.20;51.70
10300;DHT22;5195;48.562;9.192;2024-03-23T07:34:07;13.80;50.90
10300;DHT22;5195;48.562;9.192;2024-03-23T07:36:43;13.80;50.20
10300;DHT22;5195;48.562;9.192;2024-03-23T07:39:18;14.10;49.40
10300;DHT22;5195;48.562;9.192;2024-03-23T07:41:54;14.30;48.80
10300;DHT22;5195;48.562;9.192;2024-03-23T07:44:30;14.20;49.20
10300;DHT22;5195;48.562;9.192;2024-03-23T07:47:05;13.80;49.50
10300;DHT22;5195;48.562;9.192;2024-03-23T07:49:41;13.50;50.60
10300;DHT22;5195;48.562;9.192;2024-03-23T07:52:18;13.30;51.30
10300;DHT22;5195;48.562;9.192;2024-03-23T07:54:48;13.20;52.30
10300;DHT22;5195;48.562;9.192;2024-03-23T07:57:14;13.10;51.70
10300;DHT22;5195;48.562;9.192;2024-03-23T07:59:39;13.00;52.00
10300;DHT22;5195;48.562;9.192;2024-03-23T08:02:05;13.70;50.40
10300;DHT22;5195;48.562;9.192;2024-03-23T08:04:31;13.70;50.30
10300;DHT22;5195;48.562;9.192;2024-03-23T08:06:58;14.10;49.70
10300;DHT22;5195;48.562;9.192;2024-03-23T08:09:23;14.40;48.80
10300;DHT22;5195;48.562;9.192;2024-03-23T08:11:49;14.30;49.00
10300;DHT22;5195;48.562;9.192;2024-03-23T08:14:15;14.30;49.20
10300;DHT22;5195;48.562;9.192;2024-03-23T08:16:40;14.20;49.00
10300;DHT22;5195;48.562;9.192;2024-03-23T08:19:07;14.30;47.90
10300;DHT22;5195;48.562;9.192;2024-03-23T08:21:33;14.50;47.90
10300;DHT22;5195;48.562;9.192;2024-03-23T08:23:58;14.50;47.80
10300;DHT22;5195;48.562;9.192;2024-03-23T08:26:24;14.60;47.30
10300;DHT22;5195;48.562;9.192;2024-03-23T08:28:50;14.30;47.70
10300;DHT22;5195;48.562;9.192;2024-03-23T08:31:16;14.00;47.20
10300;DHT22;5195;48.562;9.192;2024-03-23T08:33:43;14.00;47.20
10300;DHT22;5195;48.562;9.192;2024-03-23T08:36:10;14.20;47.10
10300;DHT22;5195;48.562;9.192;2024-03-23T08:38:38;14.50;46.70
10300;DHT22;5195;48.562;9.192;2024-03-23T08:41:08;14.80;45.70
10300;DHT22;5195;48.562;9.192;2024-03-23T08:43:33;15.00;43.70
10300;DHT22;5195;48.562;9.192;2024-03-23T08:46:16;15.20;43.90
10300;DHT22;5195;48.562;9.192;2024-03-23T08:48:43;15.10;44.80
10300;DHT22;5195;48.562;9.192;2024-03-23T08:51:10;15.00;43.30
10300;DHT22;5195;48.562;9.192;2024-03-23T08:53:36;14.70;43.10
10300;DHT22;5195;48.562;9.192;2024-03-23T08:56:02;14.70;43.00
10300;DHT22;5195;48.562;9.192;2024-03-23T08:58:27;14.40;43.00
10300;DHT22;5195;48.562;9.192;2024-03-23T09:00:53;14.30;43.10
10300;DHT22;5195;48.562;9.192;2024-03-23T09:03:18;14.10;44.00
10300;DHT22;5195;48.562;9.192;2024-03-23T09:05:45;13.80;45.80
10300;DHT22;5195;48.562;9.192;2024-03-23T09:08:10;13.80;45.70
10300;DHT22;5195;48.562;9.192;2024-03-23T09:10:40;14.50;43.50
10300;DHT22;5195;48.562;9.192;2024-03-23T09:13:06;14.50;43.50
10300;DHT22;5195;48.562;9.192;2024-03-23T09:15:33;14.60;43.90
10300;DHT22;5195;48.562;9.192;2024-03-23T09:18:02;14.80;43.10
10300;DHT22;5195;48.562;9.192;2024-03-23T09:20:27;15.10;42.00
10300;DHT22;5195;48.562;9.192;2024-03-23T09:22:52;15.00;42.60
10300;DHT22;5195;48.562;9.192;2024-03-23T09:25:18;15.10;41.50
10300;DHT22;5195;48.562;9.192;2024-03-23T09:27:46;15.30;39.70
10300;DHT22;5195;48.562;9.192;2024-03-23T09:30:10;15.10;41.20
10300;DHT22;5195;48.562;9.192;2024-03-23T09:32:36;15.20;40.20
10300;DHT22;5195;48.562;9.192;2024-03-23T09:35:02;15.70;41.70
10300;DHT22;5195;48.562;9.192;2024-03-23T09:37:28;15.70;41.70
10300;DHT22;5195;48.562;9.192;2024-03-23T09:39:54;16.00;40.10
10300;DHT22;5195;48.562;9.192;2024-03-23T09:42:19;16.40;38.80
10300;DHT22;5195;48.562;9.192;2024-03-23T09:44:45;16.50;39.40
10300;DHT22;5195;48.562;9.192;2024-03-23T09:47:10;16.30;39.80
10300;DHT22;5195;48.562;9.192;2024-03-23T09:49:37;16.40;37.80
10300;DHT22;5195;48.562;9.192;2024-03-23T09:52:02;16.40;38.50
10300;DHT22;5195;48.562;9.192;2024-03-23T09:54:27;16.30;39.80
10300;DHT22;5195;48.562;9.192;2024-03-23T09:56:53;16.50;37.50
10300;DHT22;5195;48.562;9.192;2024-03-23T09:59:19;16.40;39.00
10300;DHT22;5195;48.562;9.192;2024-03-23T10:01:46;16.30;38.90
10300;DHT22;5195;48.562;9.192;2024-03-23T10:04:35;16.00;39.70
10300;DHT22;5195;48.562;9.192;2024-03-23T10:06:38;15.60;40.70
10300;DHT22;5195;48.562;9.192;2024-03-23T10:09:14;15.30;41.40
10300;DHT22;5195;48.562;9.192;2024-03-23T10:11:30;15.10;41.80
10300;DHT22;5195;48.562;9.192;2024-03-23T10:13:57;15.10;40.00
10300;DHT22;5195;48.562;9.192;2024-03-23T10:16:24;15.30;38.80
10300;DHT22;5195;48.562;9.192;2024-03-23T10:18:49;15.20;39.50
10300;DHT22;5195;48.562;9.192;2024-03-23T10:21:15;15.00;40.10
10300;DHT22;5195;48.562;9.192;2024-03-23T10:23:44;14.70;40.50
10300;DHT22;5195;48.562;9.192;2024-03-23T10:26:22;14.80;38.50
10300;DHT22;5195;48.562;9.192;2024-03-23T10:28:52;14.70;39.70
10300;DHT22;5195;48.562;9.192;2024-03-23T10:31:17;15.10;38.90
10300;DHT22;5195;48.562;9.192;2024-03-23T10:33:48;15.10;38.90
10300;DHT22;5195;48.562;9.192;2024-03-23T10:36:13;15.10;40.00
10300;DHT22;5195;48.562;9.192;2024-03-23T10:38:44;15.20;40.80
10300;DHT22;5195;48.562;9.192;2024-03-23T10:41:10;15.30;41.10
10300;DHT22;5195;48.562;9.192;2024-03-23T10:43:37;15.90;40.00
10300;DHT22;5195;48.562;9.192;2024-03-23T10:46:02;15.90;39.90
10300;DHT22;5195;48.562;9.192;2024-03-23T10:48:27;16.00;39.90
10300;DHT22;5195;48.562;9.192;2024-03-23T10:50:54;16.20;37.80
10300;DHT22;5195;48.562;9.192;2024-03-23T10:53:25;16.60;37.30
10300;DHT22;5195;48.562;9.192;2024-03-23T10:55:49;16.50;37.70
10300;DHT22;5195;48.562;9.192;2024-03-23T10:58:15;16.30;37.10
10300;DHT22;5195;48.562;9.192;2024-03-23T11:00:40;16.30;37.10
10300;DHT22;5195;48.562;9.192;2024-03-23T11:05:56;16.10;38.70
10300;DHT22;5195;48.562;9.192;2024-03-23T11:08:35;15.50;38.30
10300;DHT22;5195;48.562;9.192;2024-03-23T11:11:17;14.40;39.50
10300;DHT22;5195;48.562;9.192;2024-03-23T11:13:43;13.30;40.90
10300;DHT22;5195;48.562;9.192;2024-03-23T11:16:13;12.50;43.20
10300;DHT22;5195;48.562;9.192;2024-03-23T11:18:37;12.10;44.50
10300;DHT22;5195;48.562;9.192;2024-03-23T11:21:04;12.30;48.20
10300;DHT22;5195;48.562;9.192;2024-03-23T11:23:29;12.30;48.20
10300;DHT22;5195;48.562;9.192;2024-03-23T11:25:55;12.60;48.10
10300;DHT22;5195;48.562;9.192;2024-03-23T11:28:24;13.00;48.70
10300;DHT22;5195;48.562;9.192;2024-03-23T11:30:50;13.80;46.90
10300;DHT22;5195;48.562;9.192;2024-03-23T11:33:16;13.70;46.80
10300;DHT22;5195;48.562;9.192;2024-03-23T11:35:42;14.00;44.90
10300;DHT22;5195;48.562;9.192;2024-03-23T11:38:12;14.20;44.80
10300;DHT22;5195;48.562;9.192;2024-03-23T11:40:47;14.20;43.50
10300;DHT22;5195;48.562;9.192;2024-03-23T11:43:14;14.20;43.40
10300;DHT22;5195;48.562;9.192;2024-03-23T11:45:44;14.10;44.30
10300;DHT22;5195;48.562;9.192;2024-03-23T11:48:16;14.30;43.40
10300;DHT22;5195;48.562;9.192;2024-03-23T11:50:41;14.30;44.10
10300;DHT22;5195;48.562;9.192;2024-03-23T11:53:08;14.10;44.70
10300;DHT22;5195;48.562;9.192;2024-03-23T11:55:51;14.00;45.00
10300;DHT22;5195;48.562;9.192;2024-03-23T11:58:17;14.20;43.40
10300;DHT22;5195;48.562;9.192;2024-03-23T12:00:42;14.10;43.30
10300;DHT22;5195;48.562;9.192;2024-03-23T12:03:08;14.20;40.30
10300;DHT22;5195;48.562;9.192;2024-03-23T12:05:33;14.10;41.50
10300;DHT22;5195;48.562;9.192;2024-03-23T12:08:17;13.80;41.90
10300;DHT22;5195;48.562;9.192;2024-03-23T12:10:50;13.80;40.30
10300;DHT22;5195;48.562;9.192;2024-03-23T12:13:17;13.70;41.10
10300;DHT22;5195;48.562;9.192;2024-03-23T12:15:41;13.50;41.60
10300;DHT22;5195;48.562;9.192;2024-03-23T12:18:07;13.30;42.00
10300;DHT22;5195;48.562;9.192;2024-03-23T12:20:34;13.10;42.50
10300;DHT22;5195;48.562;9.192;2024-03-23T12:25:32;13.50;41.60
10300;DHT22;5195;48.562;9.192;2024-03-23T12:27:59;13.50;42.30
10300;DHT22;5195;48.562;9.192;2024-03-23T12:30:24;13.80;40.50
10300;DHT22;5195;48.562;9.192;2024-03-23T12:32:49;13.80;40.50
10300;DHT22;5195;48.562;9.192;2024-03-23T12:35:16;14.00;40.30
10300;DHT22;5195;48.562;9.192;2024-03-23T12:37:43;14.10;41.30
10300;DHT22;5195;48.562;9.192;2024-03-23T12:40:10;13.80;42.30
10300;DHT22;5195;48.562;9.192;2024-03-23T19:12:26;9.20;54.50
10300;DHT22;5195;48.562;9.192;2024-03-23T19:14:52;9.10;54.60
10300;DHT22;5195;48.562;9.192;2024-03-23T19:17:18;9.50;54.10
10300;DHT22;5195;48.562;9.192;2024-03-23T19:19:43;10.00;51.80
10300;DHT22;5195;48.562;9.192;2024-03-23T19:22:09;10.20;51.80
10300;DHT22;5195;48.562;9.192;2024-03-23T19:24:34;10.20;52.10
10300;DHT22;5195;48.562;9.192;2024-03-23T19:27:00;10.10;52.30
10300;DHT22;5195;48.562;9.192;2024-03-23T19:29:25;10.00;52.40
10300;DHT22;5195;48.562;9.192;2024-03-23T19:31:51;10.10;52.60
10300;DHT22;5195;48.562;9.192;2024-03-23T19:34:17;10.40;51.70
10300;DHT22;5195;48.562;9.192;2024-03-23T19:36:43;10.50;50.80
10300;DHT22;5195;48.562;9.192;2024-03-23T19:39:10;10.20;50.40
10300;DHT22;5195;48.562;9.192;2024-03-23T19:41:36;10.20;47.60
10300;DHT22;5195;48.562;9.192;2024-03-23T19:44:01;10.00;47.90
10300;DHT22;5195;48.562;9.192;2024-03-23T19:46:28;9.60;49.70
10300;DHT22;5195;48.562;9.192;2024-03-23T19:48:54;9.60;49.10
10300;DHT22;5195;48.562;9.192;2024-03-23T19:51:19;9.40;49.40
10300;DHT22;5195;48.562;9.192;2024-03-23T19:53:45;9.40;48.30
10300;DHT22;5195;48.562;9.192;2024-03-23T19:56:12;9.60;47.90
10300;DHT22;5195;48.562;9.192;2024-03-23T19:58:37;9.70;47.40
10300;DHT22;5195;48.562;9.192;2024-03-23T20:01:13;9.30;48.20
10300;DHT22;5195;48.562;9.192;2024-03-23T20:03:39;9.40;47.60
10300;DHT22;5195;48.562;9.192;2024-03-23T20:06:05;9.30;47.50
10300;DHT22;5195;48.562;9.192;2024-03-23T20:08:30;9.50;47.40
10300;DHT22;5195;48.562;9.192;2024-03-23T20:10:57;8.70;49.60
10300;DHT22;5195;48.562;9.192;2024-03-23T20:13:22;8.70;49.60
10300;DHT22;5195;48.562;9.192;2024-03-23T20:15:56;8.40;50.60
10300;DHT22;5195;48.562;9.192;2024-03-23T20:18:21;8.10;51.30
10300;DHT22;5195;48.562;9.192;2024-03-23T20:20:47;7.90;51.80
10300;DHT22;5195;48.562;9.192;2024-03-23T20:23:13;8.00;51.20
10300;DHT22;5195;48.562;9.192;2024-03-23T20:25:39;7.80;52.10
10300;DHT22;5195;48.562;9.192;2024-03-23T20:28:05;7.80;52.10
10300;DHT22;5195;48.562;9.192;2024-03-23T20:30:30;7.70;52.80
10300;DHT22;5195;48.562;9.192;2024-03-23T20:32:57;7.90;51.80
10300;DHT22;5195;48.562;9.192;2024-03-23T20:35:23;8.30;50.50
10300;DHT22;5195;48.562;9.192;2024-03-23T20:37:48;8.30;50.90
10300;DHT22;5195;48.562;9.192;2024-03-23T20:40:14;8.00;51.50
10300;DHT22;5195;48.562;9.192;2024-03-23T20:42:39;7.80;52.10
10300;DHT22;5195;48.562;9.192;2024-03-23T20:45:05;7.90;52.10
10300;DHT22;5195;48.562;9.192;2024-03-23T20:47:32;8.20;51.00
10300;DHT22;5195;48.562;9.192;2024-03-23T20:49:57;8.20;51.00
10300;DHT22;5195;48.562;9.192;2024-03-23T20:52:24;8.20;51.50
10300;DHT22;5195;48.562;9.192;2024-03-23T20:54:50;8.30;50.90
10300;DHT22;5195;48.562;9.192;2024-03-23T20:57:16;8.60;50.30
10300;DHT22;5195;48.562;9.192;2024-03-23T20:59:43;8.60;50.70
10300;DHT22;5195;48.562;9.192;2024-03-23T21:02:10;8.20;52.10
10300;DHT22;5195;48.562;9.192;2024-03-23T21:04:37;8.20;52.10
10300;DHT22;5195;48.562;9.192;2024-03-23T21:07:03;8.10;52.80
10300;DHT22;5195;48.562;9.192;2024-03-23T21:09:31;7.90;53.10
10300;DHT22;5195;48.562;9.192;2024-03-23T21:11:55;8.20;52.50
10300;DHT22;5195;48.562;9.192;2024-03-23T21:14:20;8.60;51.60
10300;DHT22;5195;48.562;9.192;2024-03-23T21:16:47;8.60;51.70
10300;DHT22;5195;48.562;9.192;2024-03-23T21:19:13;8.40;52.20
10300;DHT22;5195;48.562;9.192;2024-03-23T21:21:39;8.40;52.20
10300;DHT22;5195;48.562;9.192;2024-03-23T21:24:05;8.40;52.80
10300;DHT22;5195;48.562;9.192;2024-03-23T21:26:31;8.50;52.30
10300;DHT22;5195;48.562;9.192;2024-03-23T21:28:56;8.70;51.60
10300;DHT22;5195;48.562;9.192;2024-03-23T21:31:22;8.70;51.80
10300;DHT22;5195;48.562;9.192;2024-03-23T21:33:49;8.80;51.40
10300;DHT22;5195;48.562;9.192;2024-03-23T21:36:14;8.70;51.70
10300;DHT22;5195;48.562;9.192;2024-03-23T21:38:40;8.50;52.20
10300;DHT22;5195;48.562;9.192;2024-03-23T21:41:05;8.70;51.90
10300;DHT22;5195;48.562;9.192;2024-03-23T21:43:31;8.70;52.00
10300;DHT22;5195;48.562;9.192;2024-03-23T21:46:02;8.80;51.40
10300;DHT22;5195;48.562;9.192;2024-03-23T21:48:30;8.80;51.70
10300;DHT22;5195;48.562;9.192;2024-03-23T21:50:58;8.60;52.40
10300;DHT22;5195;48.562;9.192;2024-03-23T21:53:21;8.70;52.60
10300;DHT22;5195;48.562;9.192;2024-03-23T21:55:50;8.70;51.90
10300;DHT22;5195;48.562;9.192;2024-03-23T21:58:16;8.50;52.50
10300;DHT22;5195;48.562;9.192;2024-03-23T22:00:41;8.30;52.90
10300;DHT22;5195;48.562;9.192;2024-03-23T22:03:07;8.20;53.40
10300;DHT22;5195;48.562;9.192;2024-03-23T22:05:32;8.10;53.80
10300;DHT22;5195;48.562;9.192;2024-03-23T22:07:58;7.90;54.00
10300;DHT22;5195;48.562;9.192;2024-03-23T22:10:24;7.80;54.30
10300;DHT22;5195;48.562;9.192;2024-03-23T22:12:49;8.10;53.20
10300;DHT22;5195;48.562;9.192;2024-03-23T22:15:16;8.80;51.20
10300;DHT22;5195;48.562;9.192;2024-03-23T22:17:41;8.70;51.00
10300;DHT22;5195;48.562;9.192;2024-03-23T22:20:07;8.70;51.50
10300;DHT22;5195;48.562;9.192;2024-03-23T22:22:33;8.50;52.10
10300;DHT22;5195;48.562;9.192;2024-03-23T22:24:58;8.50;51.50
10300;DHT22;5195;48.562;9.192;2024-03-23T22:27:25;8.30;52.50
10300;DHT22;5195;48.562;9.192;2024-03-23T22:29:51;8.30;52.50
10300;DHT22;5195;48.562;9.192;2024-03-23T22:32:17;8.40;51.70
10300;DHT22;5195;48.562;9.192;2024-03-23T22:34:44;8.70;50.80
10300;DHT22;5195;48.562;9.192;2024-03-23T22:37:09;9.00;50.40
10300;DHT22;5195;48.562;9.192;2024-03-23T22:39:35;8.80;50.80
10300;DHT22;5195;48.562;9.192;2024-03-23T22:42:01;8.50;51.70
10300;DHT22;5195;48.562;9.192;2024-03-23T22:44:26;8.30;52.60
10300;DHT22;5195;48.562;9.192;2024-03-23T22:46:53;8.30;52.20
10300;DHT22;5195;48.562;9.192;2024-03-23T22:49:18;8.30;52.10
10300;DHT22;5195;48.562;9.192;2024-03-23T22:51:44;8.10;52.80
10300;DHT22;5195;48.562;9.192;2024-03-23T22:54:13;8.50;50.80
10300;DHT22;5195;48.562;9.192;2024-03-23T22:56:38;8.50;50.80
10300;DHT22;5195;48.562;9.192;2024-03-23T22:59:04;8.40;51.20
10300;DHT22;5195;48.562;9.192;2024-03-23T23:01:30;8.50;50.70
10300;DHT22;5195;48.562;9.192;2024-03-23T23:03:55;8.70;50.10
10300;DHT22;5195;48.562;9.192;2024-03-23T23:06:21;8.90;49.40
10300;DHT22;5195;48.562;9.192;2024-03-23T23:08:46;9.00;48.80
10300;DHT22;5195;48.562;9.192;2024-03-23T23:11:12;8.80;49.50
10300;DHT22;5195;48.562;9.192;2024-03-23T23:13:40;8.80;49.70
10300;DHT22;5195;48.562;9.192;2024-03-23T23:16:06;8.70;50.00
10300;DHT22;5195;48.562;9.192;2024-03-23T23:18:32;8.10;52.40
10300;DHT22;5195;48.562;9.192;2024-03-23T23:20:58;8.10;51.70
10300;DHT22;5195;48.562;9.192;2024-03-23T23:23:24;7.90;52.30
10300;DHT22;5195;48.562;9.192;2024-03-23T23:25:49;8.10;51.40
10300;DHT22;5195;48.562;9.192;2024-03-23T23:28:15;8.10;51.60
10300;DHT22;5195;48.562;9.192;2024-03-23T23:30:40;8.30;50.90
10300;DHT22;5195;48.562;9.192;2024-03-23T23:33:06;8.30;51.30
10300;DHT22;5195;48.562;9.192;2024-03-23T23:35:34;8.50;50.40
10300;DHT22;5195;48.562;9.192;2024-03-23T23:38:00;8.70;49.40
10300;DHT22;5195;48.562;9.192;2024-03-23T23:40:26;8.70;50.20